Time;durP1;ratioP1;P1;durP2;ratioP2;P2;SDS_P1;SDS_P2;PMS_P1;PMS_P2;Temp;Humidity;BMP_temperature;BMP_pressure;BME280_temperature;BME280_humidity;BME280_pressure;Samples;Min_cycle;Max_cycle;Signal;HPM_P1;HPM_P2
2023/01/01 00:00:42;;;;;;;111.93;59.42;;;9.80;99.90;;;;;;5100649;28;20123;-79
2023/01/01 00:03:08;;;;;;;108.07;58.70;;;9.80;99.90;;;;;;5100978;28;20103;-79
2023/01/01 00:05:36;;;;;;;104.35;58.88;;;9.80;99.90;;;;;;5099075;28;20020;-79
2023/01/01 00:08:02;;;;;;;105.53;58.63;;;9.80;99.90;;;;;;5102766;28;20030;-79
2023/01/01 00:10:28;;;;;;;90.22;51.05;;;9.80;99.90;;;;;;5100458;28;20024;-79
2023/01/01 00:12:54;;;;;;;53.88;34.47;;;9.80;99.90;;;;;;5105926;28;20447;-79
2023/01/01 00:15:20;;;;;;;42.03;28.17;;;9.80;99.90;;;;;;5103910;28;20486;-79
2023/01/01 00:17:46;;;;;;;34.85;25.75;;;9.90;99.90;;;;;;5107714;28;20028;-79
2023/01/01 00:20:12;;;;;;;33.80;22.70;;;9.80;99.90;;;;;;5102473;28;20020;-79
2023/01/01 00:22:38;;;;;;;32.63;21.95;;;9.90;99.90;;;;;;5107142;28;20024;-79
2023/01/01 00:25:04;;;;;;;32.38;23.02;;;9.90;99.90;;;;;;5103853;28;20379;-79
2023/01/01 00:27:30;;;;;;;40.28;27.92;;;9.90;99.90;;;;;;5106488;28;20043;-79
2023/01/01 00:29:55;;;;;;;39.58;27.50;;;9.90;99.90;;;;;;5106626;28;20023;-79
2023/01/01 00:32:21;;;;;;;44.10;29.17;;;9.90;99.90;;;;;;5103179;28;20030;-79
2023/01/01 00:34:47;;;;;;;57.97;34.72;;;9.90;99.90;;;;;;5105377;28;20592;-79
2023/01/01 00:37:14;;;;;;;54.75;34.20;;;9.90;99.90;;;;;;5109124;28;20028;-79
2023/01/01 00:39:40;;;;;;;76.88;42.80;;;9.90;99.90;;;;;;5103996;28;20028;-79
2023/01/01 00:42:06;;;;;;;83.28;48.25;;;9.90;99.90;;;;;;5104900;28;20114;-79
2023/01/01 00:44:31;;;;;;;76.53;45.03;;;9.90;99.90;;;;;;5104702;28;20024;-79
2023/01/01 00:46:57;;;;;;;72.10;45.10;;;9.90;99.90;;;;;;5105617;28;20028;-79
2023/01/01 00:49:23;;;;;;;73.57;45.85;;;9.90;99.90;;;;;;5104283;28;20024;-79
2023/01/01 00:51:48;;;;;;;70.13;43.30;;;9.80;99.90;;;;;;5105987;27;20076;-79
2023/01/01 00:54:14;;;;;;;75.90;45.88;;;9.80;99.90;;;;;;5103727;28;20027;-79
2023/01/01 00:56:40;;;;;;;77.25;46.42;;;9.80;99.90;;;;;;5106213;28;20034;-79
2023/01/01 00:59:06;;;;;;;84.32;49.75;;;9.80;99.90;;;;;;5103100;28;20028;-79
2023/01/01 01:01:33;;;;;;;75.97;48.63;;;9.80;99.90;;;;;;5106661;28;20475;-79
2023/01/01 01:03:59;;;;;;;73.68;46.97;;;9.80;99.90;;;;;;5105208;28;20111;-79
2023/01/01 01:06:25;;;;;;;71.70;45.40;;;9.90;99.90;;;;;;5102812;28;20536;-79
2023/01/01 01:08:50;;;;;;;63.75;43.22;;;9.90;99.90;;;;;;5104731;28;20089;-79
2023/01/01 01:11:19;;;;;;;62.45;40.50;;;9.90;99.90;;;;;;5101657;28;20110;-79
2023/01/01 01:13:47;;;;;;;51.47;34.17;;;9.90;99.90;;;;;;5106159;28;20028;-79
2023/01/01 01:16:16;;;;;;;55.72;36.80;;;9.90;99.90;;;;;;5101487;28;20016;-79
2023/01/01 01:18:43;;;;;;;58.65;36.47;;;9.90;99.90;;;;;;5102716;28;20028;-79
2023/01/01 01:21:09;;;;;;;55.22;35.97;;;9.90;99.90;;;;;;5106172;28;20102;-79
2023/01/01 01:23:36;;;;;;;55.33;35.67;;;9.90;99.90;;;;;;5101257;28;20031;-79
2023/01/01 01:26:22;;;;;;;64.60;40.92;;;9.90;99.90;;;;;;5105666;28;20281;-79
2023/01/01 01:28:48;;;;;;;87.28;52.67;;;9.90;99.90;;;;;;5105246;28;20023;-79
2023/01/01 01:31:14;;;;;;;89.35;55.63;;;9.80;99.90;;;;;;5102589;28;20119;-79
2023/01/01 01:33:42;;;;;;;94.78;58.40;;;9.80;99.90;;;;;;5103553;28;20039;-79
2023/01/01 01:36:09;;;;;;;98.10;59.80;;;9.80;99.90;;;;;;5102367;28;20438;-79
2023/01/01 01:38:35;;;;;;;84.80;53.92;;;9.80;99.90;;;;;;5103651;28;20032;-79
2023/01/01 01:41:01;;;;;;;84.57;52.97;;;9.80;99.90;;;;;;5104440;28;20084;-79
2023/01/01 01:43:32;;;;;;;82.30;54.80;;;9.80;99.90;;;;;;5103014;28;20298;-79
2023/01/01 01:46:04;;;;;;;79.32;52.42;;;9.80;99.90;;;;;;5101654;28;20052;-79
2023/01/01 01:48:36;;;;;;;82.15;52.10;;;9.90;99.90;;;;;;5103695;28;20028;-79
2023/01/01 01:51:02;;;;;;;78.88;49.88;;;9.80;99.90;;;;;;5103233;28;20042;-79
2023/01/01 01:53:34;;;;;;;73.57;47.95;;;9.80;99.90;;;;;;5103159;28;20016;-79
2023/01/01 01:56:06;;;;;;;77.22;48.58;;;9.80;99.90;;;;;;5104658;28;20369;-79
2023/01/01 01:58:33;;;;;;;;;;;9.80;99.90;;;;;;5102386;28;20043;-79
2023/01/01 02:00:59;;;;;;;71.53;45.45;;;9.80;99.90;;;;;;5105229;28;20299;-79
2023/01/01 02:03:39;;;;;;;66.63;42.78;;;9.80;99.90;;;;;;5101917;28;20031;-79
2023/01/01 02:06:06;;;;;;;65.85;40.85;;;9.80;99.90;;;;;;5102728;28;20020;-79
2023/01/01 02:08:34;;;;;;;66.57;41.60;;;9.80;99.90;;;;;;5104433;28;20472;-79
2023/01/01 02:10:59;;;;;;;60.35;38.22;;;9.80;99.90;;;;;;5102433;28;20027;-79
2023/01/01 02:13:25;;;;;;;42.97;28.20;;;9.80;99.90;;;;;;5104397;28;20024;-79
2023/01/01 02:15:55;;;;;;;38.13;24.60;;;9.80;99.90;;;;;;5100681;28;20031;-79
2023/01/01 02:18:31;;;;;;;32.60;23.27;;;9.80;99.90;;;;;;5103089;28;20386;-79
2023/01/01 02:21:18;;;;;;;35.40;20.27;;;9.80;99.90;;;;;;5099989;28;20491;-79
2023/01/01 02:23:57;;;;;;;28.25;18.45;;;9.90;99.90;;;;;;5104058;28;20035;-79
2023/01/01 02:26:37;;;;;;;24.77;16.80;;;9.90;99.90;;;;;;5102107;28;20027;-79
2023/01/01 02:29:15;;;;;;;21.88;15.80;;;9.90;99.90;;;;;;5101189;28;20518;-79
2023/01/01 02:32:13;;;;;;;20.17;15.10;;;9.90;99.90;;;;;;5101056;28;20032;-79
2023/01/01 02:34:50;;;;;;;23.65;14.57;;;9.90;99.90;;;;;;5115338;27;20084;-79
2023/01/01 02:37:18;;;;;;;20.75;14.30;;;9.90;99.90;;;;;;5119603;27;20027;-79
2023/01/01 02:39:57;;;;;;;29.35;19.55;;;9.90;99.90;;;;;;5101939;28;20492;-79
2023/01/01 02:42:27;;;;;;;36.03;23.08;;;9.90;99.90;;;;;;5101149;28;20028;-79
2023/01/01 02:44:56;;;;;;;30.48;20.70;;;9.80;99.90;;;;;;5103522;28;20035;-79
2023/01/01 02:47:22;;;;;;;27.85;17.08;;;9.90;99.90;;;;;;5101881;28;20089;-79
2023/01/01 02:50:13;;;;;;;32.28;18.63;;;9.90;99.90;;;;;;5102582;28;20482;-79
2023/01/01 02:53:01;;;;;;;22.58;17.63;;;9.90;99.90;;;;;;5099421;28;20368;-79
2023/01/01 02:55:43;;;;;;;35.35;22.73;;;9.90;99.90;;;;;;5105672;28;20023;-79
2023/01/01 03:01:12;;;;;;;39.85;26.88;;;9.80;99.90;;;;;;5100733;28;20151;-79
2023/01/01 03:04:03;;;;;;;48.88;30.70;;;9.80;99.90;;;;;;5102425;28;20019;-79
2023/01/01 03:06:59;;;;;;;54.22;35.40;;;9.80;99.90;;;;;;5100918;28;20008;-79
2023/01/01 03:09:40;;;;;;;53.70;33.90;;;9.80;99.90;;;;;;5100951;28;20081;-79
2023/01/01 03:12:24;;;;;;;57.42;36.45;;;9.80;99.90;;;;;;5100431;28;20019;-79
2023/01/01 03:14:57;;;;;;;66.97;41.17;;;9.80;99.90;;;;;;5100774;28;20571;-79
2023/01/01 03:17:23;;;;;;;64.07;40.92;;;9.80;99.90;;;;;;5101618;28;20028;-79
2023/01/01 03:19:50;;;;;;;68.53;41.65;;;9.80;99.90;;;;;;5105545;28;20026;-79
2023/01/01 03:22:17;;;;;;;55.45;36.65;;;9.80;99.90;;;;;;5112989;28;20028;-79
2023/01/01 03:24:55;;;;;;;59.85;37.28;;;9.80;99.90;;;;;;5113763;28;20111;-79
2023/01/01 03:27:38;;;;;;;61.00;39.00;;;9.80;99.90;;;;;;5113687;28;20028;-79
2023/01/01 03:30:08;;;;;;;67.88;43.25;;;9.80;99.90;;;;;;5107778;28;20030;-79
2023/01/01 03:35:29;;;;;;;60.95;40.95;;;9.80;99.90;;;;;;5094501;28;20039;-79
2023/01/01 03:37:58;;;;;;;64.72;40.80;;;9.80;99.90;;;;;;5098313;28;20052;-79
2023/01/01 03:40:26;;;;;;;77.72;47.88;;;9.80;99.90;;;;;;5099793;28;20397;-79
2023/01/01 03:43:01;;;;;;;79.75;49.05;;;9.80;99.90;;;;;;5098368;28;20043;-79
2023/01/01 03:45:35;;;;;;;85.38;52.15;;;9.80;99.90;;;;;;5099268;28;20097;-79
2023/01/01 03:48:03;;;;;;;79.50;51.15;;;9.80;99.90;;;;;;5100405;28;20061;-79
2023/01/01 03:50:57;;;;;;;89.03;55.10;;;9.80;99.90;;;;;;5097723;28;20027;-79
2023/01/01 03:53:32;;;;;;;101.63;60.70;;;9.80;99.90;;;;;;5090406;28;20113;-79
2023/01/01 03:56:08;;;;;;;102.30;64.15;;;9.70;99.90;;;;;;5101540;28;20368;-79
2023/01/01 03:58:44;;;;;;;104.05;63.50;;;9.80;99.90;;;;;;5098630;28;20020;-79
2023/01/01 04:01:29;;;;;;;103.60;64.25;;;9.80;99.90;;;;;;5101130;28;20027;-79
2023/01/01 04:03:56;;;;;;;102.28;63.35;;;9.80;99.90;;;;;;5097898;28;20016;-79
2023/01/01 04:06:22;;;;;;;105.28;65.72;;;9.80;99.90;;;;;;5099622;28;20020;-79
2023/01/01 04:08:52;;;;;;;101.75;62.10;;;9.80;99.90;;;;;;5103067;28;20027;-79
2023/01/01 04:14:06;;;;;;;89.25;56.58;;;9.80;99.90;;;;;;5102444;28;20412;-79
2023/01/01 04:16:32;;;;;;;93.45;58.55;;;9.80;99.90;;;;;;5100924;28;20025;-79
2023/01/01 04:18:57;;;;;;;103.75;63.15;;;9.80;99.90;;;;;;5098795;28;20024;-79
2023/01/01 04:21:23;;;;;;;111.32;69.25;;;9.80;99.90;;;;;;5106024;28;20028;-79
2023/01/01 04:23:49;;;;;;;111.78;68.97;;;9.80;99.90;;;;;;5100449;28;20043;-78
2023/01/01 04:26:15;;;;;;;112.72;67.97;;;9.80;99.90;;;;;;5099602;28;20026;-79
2023/01/01 04:28:41;;;;;;;120.28;71.38;;;9.80;99.90;;;;;;5102191;28;20471;-79
2023/01/01 04:31:08;;;;;;;109.65;68.72;;;9.80;99.90;;;;;;5103545;28;20019;-79
2023/01/01 04:33:34;;;;;;;112.03;69.80;;;9.80;99.90;;;;;;5101365;28;20034;-79
2023/01/01 04:36:05;;;;;;;107.68;68.40;;;9.80;99.90;;;;;;5095709;28;20487;-79
2023/01/01 04:38:32;;;;;;;107.78;65.82;;;9.80;99.90;;;;;;5100569;28;20028;-79
2023/01/01 04:40:59;;;;;;;110.93;68.43;;;9.80;99.90;;;;;;5104555;28;20250;-79
2023/01/01 04:43:25;;;;;;;101.22;65.72;;;9.80;99.90;;;;;;5103273;28;20024;-79
2023/01/01 04:46:01;;;;;;;99.05;62.92;;;9.80;99.90;;;;;;5102250;28;20570;-79
2023/01/01 04:48:28;;;;;;;94.72;60.90;;;9.80;99.90;;;;;;5099350;28;20019;-79
2023/01/01 04:51:03;;;;;;;106.30;65.65;;;9.80;99.90;;;;;;5099967;28;20085;-79
2023/01/01 04:53:31;;;;;;;108.75;67.43;;;9.80;99.90;;;;;;5098809;28;20093;-79
2023/01/01 04:56:07;;;;;;;119.72;70.10;;;9.80;99.90;;;;;;5100969;28;20114;-79
2023/01/01 04:58:35;;;;;;;107.03;66.72;;;9.80;99.90;;;;;;5106839;28;20032;-79
2023/01/01 05:01:01;;;;;;;104.65;66.25;;;9.80;99.90;;;;;;5106625;28;20035;-79
2023/01/01 05:03:27;;;;;;;103.95;64.82;;;9.70;99.90;;;;;;5104463;28;20027;-79
2023/01/01 05:06:07;;;;;;;105.63;66.55;;;9.70;99.90;;;;;;5105901;28;20080;-79
2023/01/01 05:08:34;;;;;;;99.10;63.78;;;9.70;99.90;;;;;;5105930;28;20027;-79
2023/01/01 05:11:11;;;;;;;105.57;63.95;;;9.70;99.90;;;;;;5104191;28;20553;-79
2023/01/01 05:13:38;;;;;;;108.57;66.95;;;9.70;99.90;;;;;;5103910;28;20066;-79
2023/01/01 05:16:06;;;;;;;110.57;65.10;;;9.80;99.90;;;;;;5107299;28;20035;-79
2023/01/01 05:18:34;;;;;;;103.07;64.50;;;9.70;99.90;;;;;;5104119;28;20028;-79
2023/01/01 05:21:00;;;;;;;107.57;63.10;;;9.70;99.90;;;;;;5101701;28;20368;-79
2023/01/01 05:23:27;;;;;;;96.30;61.05;;;9.70;99.90;;;;;;5103154;28;20031;-79
2023/01/01 05:25:53;;;;;;;94.60;59.70;;;9.70;99.90;;;;;;5105085;28;20020;-79
2023/01/01 05:28:19;;;;;;;93.97;61.22;;;9.70;99.90;;;;;;5102570;28;20023;-79
2023/01/01 05:30:44;;;;;;;102.35;62.42;;;9.70;99.90;;;;;;5104443;28;20051;-79
2023/01/01 05:33:11;;;;;;;88.93;57.42;;;9.70;99.90;;;;;;5107079;28;20069;-79
2023/01/01 05:35:37;;;;;;;89.75;57.60;;;9.70;99.90;;;;;;5100830;28;20031;-80
2023/01/01 05:38:03;;;;;;;97.80;59.53;;;9.60;99.90;;;;;;5102457;28;20024;-79
2023/01/01 05:40:29;;;;;;;87.63;56.95;;;9.60;99.90;;;;;;5107250;28;20115;-79
2023/01/01 05:42:55;;;;;;;95.25;58.92;;;9.60;99.90;;;;;;5105075;28;20380;-79
2023/01/01 05:45:21;;;;;;;89.68;57.78;;;9.60;99.90;;;;;;5104913;28;20065;-79
2023/01/01 05:47:47;;;;;;;93.20;59.47;;;9.70;99.90;;;;;;5104985;28;20047;-79
2023/01/01 05:50:12;;;;;;;96.45;61.17;;;9.70;99.90;;;;;;5100357;28;20027;-79
2023/01/01 05:52:38;;;;;;;101.40;60.08;;;9.70;99.90;;;;;;5102042;28;20070;-79
2023/01/01 05:55:04;;;;;;;96.18;60.58;;;9.70;99.90;;;;;;5109331;28;20391;-79
2023/01/01 05:57:30;;;;;;;97.63;60.95;;;9.70;99.90;;;;;;5101936;28;20036;-79
2023/01/01 05:59:55;;;;;;;86.43;56.42;;;9.70;99.90;;;;;;5106001;28;20548;-79
2023/01/01 06:02:21;;;;;;;85.22;56.45;;;9.70;99.90;;;;;;5104978;28;20049;-79
2023/01/01 06:04:47;;;;;;;81.63;53.75;;;9.70;99.90;;;;;;5100692;28;20031;-79
2023/01/01 06:07:12;;;;;;;87.78;56.38;;;9.70;99.90;;;;;;5103058;28;20510;-79
2023/01/01 06:09:38;;;;;;;89.47;58.65;;;9.60;99.90;;;;;;5100776;28;20387;-79
2023/01/01 06:12:04;;;;;;;98.30;61.92;;;9.60;99.90;;;;;;5104542;28;20028;-79
2023/01/01 06:14:30;;;;;;;99.85;59.63;;;9.60;99.90;;;;;;5105371;28;20024;-79
2023/01/01 06:16:56;;;;;;;101.03;60.88;;;9.60;99.90;;;;;;5103408;28;20038;-79
2023/01/01 06:19:21;;;;;;;95.63;58.33;;;9.60;99.90;;;;;;5103009;28;20059;-79
2023/01/01 06:21:47;;;;;;;99.53;61.13;;;9.60;99.90;;;;;;5108165;28;20164;-79
2023/01/01 06:24:13;;;;;;;93.72;59.15;;;9.70;99.90;;;;;;5102735;28;20065;-79
2023/01/01 06:26:39;;;;;;;93.55;58.72;;;9.60;99.90;;;;;;5100965;28;20554;-79
2023/01/01 06:29:04;;;;;;;95.47;58.83;;;9.70;99.90;;;;;;5104432;28;20024;-79
2023/01/01 06:31:30;;;;;;;92.68;55.42;;;9.70;99.90;;;;;;5104488;28;20603;-79
2023/01/01 06:33:56;;;;;;;87.45;54.45;;;9.70;99.90;;;;;;5100662;28;20488;-79
2023/01/01 06:36:24;;;;;;;94.28;55.15;;;9.70;99.90;;;;;;5100701;28;20028;-78
2023/01/01 06:38:53;;;;;;;88.80;53.53;;;9.70;99.90;;;;;;5103824;28;20019;-79
2023/01/01 06:41:24;;;;;;;86.88;51.83;;;9.70;99.90;;;;;;5104248;28;20020;-78
2023/01/01 06:43:50;;;;;;;83.83;51.10;;;9.70;99.90;;;;;;5103474;28;20074;-79
2023/01/01 06:46:26;;;;;;;83.22;50.03;;;9.70;99.90;;;;;;5102848;28;20043;-79
2023/01/01 06:48:54;;;;;;;83.28;50.50;;;9.70;99.90;;;;;;5101289;28;20114;-79
2023/01/01 06:51:23;;;;;;;82.13;49.00;;;9.80;99.90;;;;;;5104530;28;20100;-79
2023/01/01 06:53:50;;;;;;;75.50;47.75;;;9.70;99.90;;;;;;5103549;28;20074;-79
2023/01/01 06:56:16;;;;;;;76.07;47.28;;;9.70;99.90;;;;;;5100775;28;20077;-79
2023/01/01 06:58:42;;;;;;;67.72;43.63;;;9.70;99.90;;;;;;5101666;28;20500;-79
2023/01/01 07:01:20;;;;;;;69.18;42.83;;;9.70;99.90;;;;;;5102711;28;20031;-78
2023/01/01 07:03:51;;;;;;;73.07;43.95;;;9.70;99.90;;;;;;5103543;28;20430;-79
2023/01/01 07:06:17;;;;;;;69.30;42.40;;;9.70;99.90;;;;;;5100535;28;20174;-79
2023/01/01 07:08:43;;;;;;;71.43;42.65;;;9.70;99.90;;;;;;5101686;28;20376;-79
2023/01/01 07:11:08;;;;;;;67.82;41.88;;;9.80;99.90;;;;;;5110648;28;20193;-79
2023/01/01 07:13:34;;;;;;;76.82;45.58;;;9.70;99.90;;;;;;5101508;28;20058;-79
2023/01/01 07:16:01;;;;;;;82.25;49.90;;;9.80;99.90;;;;;;5103537;28;20031;-79
2023/01/01 07:18:27;;;;;;;82.50;49.38;;;9.80;99.90;;;;;;5101149;28;20110;-79
2023/01/01 07:20:56;;;;;;;85.70;52.08;;;9.80;99.90;;;;;;5109051;28;20127;-79
2023/01/01 07:23:22;;;;;;;86.78;53.70;;;9.80;99.90;;;;;;5104310;28;20365;-79
2023/01/01 07:25:49;;;;;;;86.68;54.28;;;9.80;99.90;;;;;;5101951;28;20024;-79
2023/01/01 07:28:15;;;;;;;83.22;52.97;;;9.80;99.90;;;;;;5098946;28;20023;-79
2023/01/01 07:30:40;;;;;;;88.57;54.90;;;9.80;99.90;;;;;;5102950;28;20090;-79
2023/01/01 07:33:15;;;;;;;91.38;54.97;;;9.80;99.90;;;;;;5101691;28;20034;-79
2023/01/01 07:35:41;;;;;;;90.32;57.22;;;9.80;99.90;;;;;;5100019;28;20031;-79
2023/01/01 07:38:07;;;;;;;88.68;54.67;;;9.80;99.90;;;;;;5102343;28;20034;-79
2023/01/01 07:40:33;;;;;;;91.82;54.90;;;9.80;99.90;;;;;;5105182;28;20171;-79
2023/01/01 07:42:58;;;;;;;88.68;54.10;;;9.80;99.90;;;;;;5101923;28;20182;-79
2023/01/01 07:45:24;;;;;;;87.00;53.72;;;9.80;99.90;;;;;;5102810;28;20507;-79
2023/01/01 07:47:53;;;;;;;90.22;54.85;;;9.70;99.90;;;;;;5102293;28;20031;-79
2023/01/01 07:50:19;;;;;;;85.93;52.65;;;9.80;99.90;;;;;;5107580;28;20115;-79
2023/01/01 07:52:45;;;;;;;86.35;54.60;;;9.80;99.90;;;;;;5100906;28;20031;-79
2023/01/01 07:55:13;;;;;;;84.22;52.65;;;9.80;99.90;;;;;;5102425;28;20432;-79
2023/01/01 07:57:39;;;;;;;83.82;52.20;;;9.80;99.90;;;;;;5101175;28;20473;-79
2023/01/01 08:00:06;;;;;;;77.05;49.45;;;9.90;99.90;;;;;;5100777;28;20028;-79
2023/01/01 08:02:31;;;;;;;85.10;53.70;;;9.80;99.90;;;;;;5105949;28;20070;-79
2023/01/01 08:04:57;;;;;;;85.03;52.88;;;9.80;99.90;;;;;;5097704;28;20052;-79
2023/01/01 08:07:23;;;;;;;88.07;53.88;;;9.80;99.90;;;;;;5102919;28;20024;-79
2023/01/01 08:09:49;;;;;;;79.30;49.33;;;9.80;99.90;;;;;;5099714;28;20391;-79
2023/01/01 08:12:14;;;;;;;81.75;50.58;;;9.80;99.90;;;;;;5102789;28;20107;-79
2023/01/01 08:14:40;;;;;;;86.45;51.65;;;9.80;99.90;;;;;;5102126;28;20035;-79
2023/01/01 08:17:05;;;;;;;79.13;50.72;;;9.80;99.90;;;;;;5102786;28;20028;-79
2023/01/01 08:19:31;;;;;;;77.05;49.60;;;9.80;99.90;;;;;;5103393;28;20057;-79
2023/01/01 08:21:57;;;;;;;79.57;47.95;;;9.80;99.90;;;;;;5099797;28;20028;-79
2023/01/01 08:24:22;;;;;;;73.97;46.90;;;9.80;99.90;;;;;;5101734;28;20937;-79
2023/01/01 08:26:49;;;;;;;76.35;46.80;;;9.80;99.90;;;;;;5100851;28;20503;-79
2023/01/01 08:29:15;;;;;;;78.47;49.10;;;9.90;99.90;;;;;;5101852;28;20548;-79
2023/01/01 08:31:41;;;;;;;76.13;46.63;;;9.90;99.90;;;;;;5101907;28;20110;-79
2023/01/01 08:34:07;;;;;;;77.47;47.60;;;9.90;99.90;;;;;;5108166;28;20115;-79
2023/01/01 08:36:33;;;;;;;80.10;49.05;;;9.90;99.90;;;;;;5105053;28;20056;-79
2023/01/01 08:38:59;;;;;;;80.55;49.47;;;9.90;99.90;;;;;;5104435;28;20038;-79
2023/01/01 08:41:24;;;;;;;75.55;48.72;;;9.90;99.90;;;;;;5104515;28;20031;-79
2023/01/01 08:43:50;;;;;;;74.55;47.80;;;9.90;99.90;;;;;;5108255;28;20028;-79
2023/01/01 08:46:16;;;;;;;73.70;47.80;;;10.00;99.90;;;;;;5106723;28;20059;-79
2023/01/01 08:48:42;;;;;;;83.68;50.10;;;9.90;99.90;;;;;;5106043;28;20024;-79
2023/01/01 08:51:09;;;;;;;79.72;49.40;;;10.00;99.90;;;;;;5108777;28;20507;-79
2023/01/01 08:53:35;;;;;;;78.18;48.10;;;10.00;99.90;;;;;;5105117;28;20491;-79
2023/01/01 08:56:03;;;;;;;78.18;49.58;;;10.00;99.90;;;;;;5101928;28;20032;-78
2023/01/01 08:58:30;;;;;;;79.90;51.65;;;10.00;99.90;;;;;;5103173;28;20024;-79
2023/01/01 09:00:55;;;;;;;77.50;50.20;;;10.10;99.90;;;;;;5106736;28;20028;-79
2023/01/01 09:03:22;;;;;;;78.78;48.97;;;10.10;99.90;;;;;;5106013;28;20019;-79
2023/01/01 09:05:47;;;;;;;78.68;49.30;;;10.10;99.90;;;;;;5106145;28;20024;-79
2023/01/01 09:08:17;;;;;;;76.85;47.40;;;10.10;99.90;;;;;;5102987;28;20024;-79
2023/01/01 09:10:43;;;;;;;78.63;48.88;;;10.10;99.90;;;;;;5108391;28;20049;-79
2023/01/01 09:13:10;;;;;;;79.15;47.88;;;10.10;99.90;;;;;;5107381;28;20028;-79
2023/01/01 09:15:36;;;;;;;76.55;47.85;;;10.20;99.90;;;;;;5103234;28;20059;-79
2023/01/01 09:18:02;;;;;;;72.97;44.95;;;10.20;99.90;;;;;;5109684;28;20059;-79
2023/01/01 09:20:28;;;;;;;75.90;44.17;;;10.20;99.90;;;;;;5106397;28;20030;-79
2023/01/01 09:22:53;;;;;;;69.32;43.63;;;10.20;99.90;;;;;;5106466;28;20028;-78
2023/01/01 09:25:19;;;;;;;68.90;45.65;;;10.20;99.90;;;;;;5099886;28;20089;-79
2023/01/01 09:27:45;;;;;;;73.93;44.20;;;10.30;99.90;;;;;;5112479;28;20031;-78
2023/01/01 09:30:11;;;;;;;71.00;44.13;;;10.30;99.90;;;;;;5108870;28;20028;-78
2023/01/01 09:32:36;;;;;;;71.85;44.40;;;10.40;99.90;;;;;;5103901;28;20024;-78
2023/01/01 09:35:02;;;;;;;74.28;43.80;;;10.40;99.90;;;;;;5097240;28;20028;-79
2023/01/01 09:37:28;;;;;;;67.10;43.50;;;10.40;99.90;;;;;;5106647;28;20395;-79
2023/01/01 09:39:54;;;;;;;65.03;41.70;;;10.40;99.90;;;;;;5113426;28;20069;-78
2023/01/01 09:42:48;;;;;;;69.40;44.03;;;10.40;99.90;;;;;;5106165;28;20028;-79
2023/01/01 09:45:36;;;;;;;71.68;44.10;;;10.50;99.90;;;;;;5104655;28;20040;-78
2023/01/01 09:48:06;;;;;;;66.15;43.75;;;10.40;99.90;;;;;;5105990;27;20052;-79
2023/01/01 09:50:38;;;;;;;69.93;44.95;;;10.40;99.90;;;;;;5102901;28;20017;-78
2023/01/01 09:53:25;;;;;;;68.00;44.17;;;10.40;99.90;;;;;;5109553;28;20027;-78
2023/01/01 09:56:02;;;;;;;75.85;46.80;;;10.50;99.90;;;;;;5105957;28;20023;-79
2023/01/01 09:58:37;;;;;;;76.22;48.63;;;10.50;99.90;;;;;;5102057;28;20427;-79
2023/01/01 10:01:23;;;;;;;78.65;47.40;;;10.50;99.90;;;;;;5098254;28;20059;-79
2023/01/01 10:04:26;;;;;;;72.05;44.75;;;10.40;99.90;;;;;;5101643;28;20054;-78
2023/01/01 10:07:07;;;;;;;72.35;45.42;;;10.40;99.90;;;;;;5099965;28;20070;-78
2023/01/01 10:09:51;;;;;;;76.10;47.30;;;10.50;99.90;;;;;;5105632;28;20024;-78
2023/01/01 10:12:33;;;;;;;75.15;46.20;;;10.40;99.90;;;;;;5101826;28;20457;-79
2023/01/01 10:15:12;;;;;;;71.82;44.10;;;10.50;99.90;;;;;;5101954;28;20036;-78
2023/01/01 10:17:44;;;;;;;74.57;44.45;;;10.50;99.90;;;;;;5100422;28;20028;-78
2023/01/01 10:20:19;;;;;;;69.93;44.28;;;10.50;99.90;;;;;;5117931;27;20032;-79
2023/01/01 10:22:49;;;;;;;68.47;41.70;;;10.40;99.90;;;;;;5104870;28;20423;-78
2023/01/01 10:25:30;;;;;;;63.45;40.80;;;10.40;99.90;;;;;;5103821;28;20024;-79
2023/01/01 10:28:19;;;;;;;58.30;38.92;;;10.40;99.90;;;;;;5101471;28;20024;-78
2023/01/01 10:30:45;;;;;;;61.13;39.03;;;10.50;99.90;;;;;;5068311;28;20044;-79
2023/01/01 10:33:13;;;;;;;52.47;34.17;;;10.60;99.90;;;;;;5104898;28;20020;-79
2023/01/01 10:35:42;;;;;;;54.85;34.30;;;10.60;99.90;;;;;;5103092;28;20030;-78
2023/01/01 10:38:25;;;;;;;55.63;34.72;;;10.60;99.90;;;;;;5104462;27;20124;-79
2023/01/01 10:41:09;;;;;;;53.45;35.00;;;10.60;99.90;;;;;;5103547;28;20039;-79
2023/01/01 10:43:35;;;;;;;59.85;36.25;;;10.60;99.90;;;;;;5103754;28;20072;-78
2023/01/01 10:46:03;;;;;;;45.50;30.85;;;10.70;99.90;;;;;;5106433;27;20042;-79
2023/01/01 10:48:30;;;;;;;41.85;26.88;;;10.70;99.90;;;;;;5103161;28;20422;-78
2023/01/01 10:51:00;;;;;;;46.10;28.52;;;10.70;99.90;;;;;;5107617;28;20039;-79
2023/01/01 10:53:54;;;;;;;45.20;26.85;;;10.80;99.90;;;;;;5103486;28;20438;-79
2023/01/01 10:56:24;;;;;;;41.13;26.70;;;10.80;99.90;;;;;;5101905;28;20353;-79
2023/01/01 10:58:53;;;;;;;45.38;28.77;;;10.80;99.90;;;;;;5100103;28;20024;-79
2023/01/01 11:01:22;;;;;;;42.65;28.55;;;10.80;99.90;;;;;;5103949;28;20031;-78
2023/01/01 11:04:08;;;;;;;45.47;29.17;;;10.80;99.90;;;;;;5099788;28;20024;-79
2023/01/01 11:06:40;;;;;;;40.88;28.45;;;10.90;99.90;;;;;;5102645;28;20024;-79
2023/01/01 11:09:26;;;;;;;42.65;27.83;;;10.90;99.90;;;;;;5101207;28;20027;-79
2023/01/01 11:12:01;;;;;;;46.22;29.88;;;10.90;99.90;;;;;;5103683;28;20491;-79
2023/01/01 11:14:43;;;;;;;43.53;29.45;;;11.00;99.90;;;;;;5113738;28;20399;-78
2023/01/01 11:17:09;;;;;;;41.85;26.80;;;11.00;99.90;;;;;;5109261;28;20068;-79
2023/01/01 11:19:40;;;;;;;42.58;26.60;;;11.10;99.90;;;;;;5112541;28;20027;-79
2023/01/01 11:22:14;;;;;;;38.20;26.35;;;11.10;99.90;;;;;;5106247;28;20027;-79
2023/01/01 11:24:40;;;;;;;36.70;25.05;;;11.10;99.90;;;;;;5102453;28;20028;-79
2023/01/01 11:27:26;;;;;;;35.60;23.70;;;11.10;99.90;;;;;;5110773;28;20486;-79
2023/01/01 11:30:17;;;;;;;39.00;24.23;;;11.10;99.90;;;;;;5112299;28;20053;-78
2023/01/01 11:32:43;;;;;;;37.63;23.92;;;11.10;99.90;;;;;;5109247;28;20413;-78
2023/01/01 11:35:17;;;;;;;38.67;25.77;;;11.10;99.90;;;;;;5110531;27;20126;-78
2023/01/01 11:37:44;;;;;;;38.22;24.40;;;11.10;99.90;;;;;;5119785;27;20027;-78
2023/01/01 11:40:38;;;;;;;35.17;22.77;;;11.10;99.90;;;;;;5101388;28;20074;-78
2023/01/01 11:43:05;;;;;;;34.28;21.83;;;11.00;99.90;;;;;;5095202;28;20114;-79
2023/01/01 11:45:33;;;;;;;33.65;22.08;;;11.00;99.90;;;;;;5099923;28;20039;-78
2023/01/01 11:48:02;;;;;;;37.45;23.25;;;11.10;99.90;;;;;;5107697;28;20031;-79
2023/01/01 11:50:40;;;;;;;34.67;22.40;;;11.10;99.90;;;;;;5104943;28;20481;-78
2023/01/01 11:53:30;;;;;;;38.58;23.83;;;11.10;99.90;;;;;;5102809;28;20535;-78
2023/01/01 11:56:22;;;;;;;35.13;22.27;;;11.10;99.90;;;;;;5098774;28;20388;-79
2023/01/01 11:58:56;;;;;;;34.47;22.90;;;11.10;99.90;;;;;;5108190;28;20360;-75
2023/01/01 12:01:49;;;;;;;31.67;22.45;;;11.00;99.90;;;;;;5091609;28;20349;-75
2023/01/01 12:04:24;;;;;;;36.08;22.85;;;11.10;99.90;;;;;;5105194;28;20027;-75
2023/01/01 12:06:55;;;;;;;39.42;25.00;;;11.10;99.90;;;;;;5110222;28;20027;-75
2023/01/01 12:09:37;;;;;;;37.80;23.75;;;11.10;99.90;;;;;;5108044;28;20115;-75
2023/01/01 12:12:14;;;;;;;;;;;11.00;99.90;;;;;;5093174;28;20110;-75
2023/01/01 12:15:03;;;;;;;37.38;24.00;;;11.00;99.90;;;;;;5100716;28;19908;-75
2023/01/01 12:17:46;;;;;;;35.70;24.05;;;11.00;99.90;;;;;;5100046;28;20024;-75
2023/01/01 12:20:35;;;;;;;36.90;24.92;;;11.00;99.90;;;;;;5103413;28;20032;-75
2023/01/01 12:23:02;;;;;;;35.25;24.05;;;11.00;99.90;;;;;;5104137;28;20034;-75
2023/01/01 12:25:46;;;;;;;38.78;24.58;;;11.00;99.90;;;;;;5107238;28;20139;-75
2023/01/01 12:28:25;;;;;;;37.17;23.35;;;11.10;99.90;;;;;;5110936;28;20030;-75
2023/01/01 12:31:00;;;;;;;39.83;24.60;;;11.10;99.90;;;;;;5103093;28;20115;-75
2023/01/01 12:33:54;;;;;;;39.42;24.23;;;11.10;99.90;;;;;;5106824;28;20535;-75
2023/01/01 12:36:22;;;;;;;40.78;25.40;;;11.20;99.90;;;;;;5104099;28;20042;-75
2023/01/01 12:38:57;;;;;;;38.97;24.50;;;11.20;99.90;;;;;;5108646;28;20027;-75
2023/01/01 12:41:59;;;;;;;35.55;24.30;;;11.20;99.90;;;;;;5106737;28;20098;-75
2023/01/01 12:45:04;;;;;;;41.05;27.02;;;11.20;99.90;;;;;;5108311;28;20027;-75
2023/01/01 12:48:00;;;;;;;38.00;25.40;;;11.20;99.90;;;;;;5087721;28;20042;-75
2023/01/01 12:51:27;;;;;;;41.88;25.55;;;11.20;99.90;;;;;;5114986;28;20042;-75
2023/01/01 12:54:19;;;;;;;38.03;24.70;;;11.30;99.90;;;;;;5028822;28;20124;-75
2023/01/01 12:56:51;;;;;;;;;;;11.30;99.90;;;;;;5102025;28;20111;-75
2023/01/01 12:59:29;;;;;;;40.20;26.02;;;11.30;99.90;;;;;;5103181;28;20007;-75
2023/01/01 13:01:59;;;;;;;38.75;25.55;;;11.30;99.90;;;;;;5112489;28;20039;-75